Strona główna
METAR-TAF:

METAR-TAF

Lotnisko :

Port lotniczy Bathurst

Bathurst, Nowy Brunszwik, Kanada

Szerokość geograficzna: 47-38N, Długość geograficzna: 065-45W, wysokość: 59 m

Aktualna obserwacja pogody

Raport powstał 23 minut temu, godzina 14:00 UTC
Wiatr 6 kt od południowo-południowy wschód
Temperatura 3°C
Wilgotność 52%
Ciśnienie 1020 hPa
Widzialność: 14.5 km
bezchmurnie

METAR: CZBF 211400Z AUTO 16006KT 9SM CLR 03/M06 A3011 RMK SLP201

czas: 11:23 (14:23 UTC)

Prognoza

Raport powstał 41 minut temu, godzina 13:42 UTC
Prognoza ważna od 21 godzina 14 UTC do 22 godzina 02 UTC
Wiatr 6 kt od południe
Widzialność: 10 km
Przerywane chmury na wysokości 10000 ft
Od 21 godzina 1800 UTC
Wiatr 12 kt od południowo-południowy zachód
Widzialność: 10 km
Przerywane chmury na wysokości 4000 ft
Zachmurzenie całkowite na wysokości 8000 ft

TAF: CZBF 211342Z 2114/2202 19006KT P6SM BKN100 FM211800 20012KT P6SM BKN040 OVC080 RMK FCST BASED ON AUTO OBS. NXT FCST BY 212000Z

Obserwacja i prognoza pogody dla ponad 4000 lotnisk (raport METAR i TAF).

Dostępne stacje oznaczono żółtymi i czerwonymi punktami na mapie.

Najedź kursorem aby zobaczyć nazwę stacji.

Kliknij aby zobaczyć obserwacje i prognozy pogody.

Aby zmienić mapę: kliknij na zielony przycisk z czarnym krzyżykiem, aby powiększyć; na zielony przycisk z myślnikiem, aby pomniejszyć; na zielone strzałki, aby przejść do map sąsiednich.


METAR-TAF: